Allensville, Ohio
Current Conditions -  °F | °C
As of 3:10 PM on Thursday 29 Jan 2015 (Local Time) from KUNI Reporting Station
Overcast Overcast  
Wind Chill:   Ceiling: 3800
Heat Index:   Visibility: 10mi
Dew Point:   Wind: 5mph
Humidity: 68%   Direction: 190°S
Pressure: 29.81"   Gusts: NA
Location:  39.2719°N, 82.4596°W
Report Text: KUNI 292010Z AUTO 19004KT 10SM OVC038 08/02 A2981 RMK AO2 T00760021
Loading
Personal Weather Stations






























Interactive Weather Map New forecast layout! Learn more

10-Day Weather Forecast

Advertisements
Track Severe Weather on mobile